Latest Weather Observations for Victoria River Downs

IDD60801

Issued at 7:35 pm CST Sunday 21 September 2014 (issued every 30 minutes, with the page automatically refreshed every 10 minutes)

About weather observations | Map of weather stations | Latest weather observations for NT | Other Formats
Station Details ID: 014825 Name: VICTORIA RIVER DOWNS Lat: -16.40 Lon: 131.01 Height: 88.5 m
Data from the previous 72 hours. | See also: Recent months at Victoria River Downs
Date/Time
CST
Temp
°C
App
Temp
°C
Dew
Point
Rel
Hum
%
Delta-T
°C
Wind Press
QNH
hPa
Press
MSL
hPa
Rain
since 9 am
mm
Dir
 
Spd
km/h
Gust
km/h
Spd
kts
Gust
kts
21/07:30pm 31.3 27.1 1.6 15 14.8 SSE 13 26 7 14 1012.7 - 0.0
21/07:00pm 32.2 27.9 1.3 14 15.4 SSE 13 20 7 11 1012.3 - 0.0
21/06:30pm 33.3 28.3 1.2 13 16.0 SSE 17 26 9 14 1011.8 - 0.0
21/06:00pm 35.4 31.0 0.5 11 17.5 S 13 20 7 11 1011.1 1010.6 0.0
21/05:30pm 36.2 31.9 1.1 11 17.8 SSE 13 22 7 12 1010.7 - 0.0
21/05:00pm 36.7 32.5 1.5 11 18.1 S 13 24 7 13 1010.7 - 0.0
21/04:30pm 37.4 33.4 0.7 10 18.7 SSW 11 17 6 9 1010.6 - 0.0
21/04:00pm 37.4 33.3 2.0 11 18.4 S 13 24 7 13 1010.5 - 0.0
21/03:30pm 37.2 32.4 0.5 10 18.6 SSE 15 22 8 12 1010.8 - 0.0
21/03:00pm 38.0 33.9 -0.3 9 19.3 SW 11 17 6 9 1011.0 1010.5 0.0
21/02:30pm 37.7 34.3 -0.6 9 19.1 S 7 17 4 9 1011.4 - 0.0
21/02:00pm 37.3 33.5 -0.9 9 18.9 SSW 9 15 5 8 1012.2 - 0.0
21/01:30pm 38.0 33.3 1.1 10 19.0 SSW 15 26 8 14 1012.7 - 0.0
21/01:00pm 36.2 32.5 -0.2 10 18.1 SW 9 17 5 9 1013.3 - 0.0
21/12:30pm 36.2 32.5 -0.2 10 18.1 SSE 9 17 5 9 1014.0 - 0.0
21/12:00pm 35.3 32.0 0.4 11 17.4 NNW 7 13 4 7 1014.6 1014.0 0.0
21/11:30am 35.2 31.7 1.5 12 17.1 S 9 15 5 8 1015.2 - 0.0
21/11:00am 33.9 29.9 0.5 12 16.6 ESE 11 17 6 9 1015.8 - 0.0
21/10:30am 32.6 28.2 0.6 13 15.8 ESE 13 22 7 12 1016.0 - 0.0
21/10:00am 30.5 25.6 1.9 16 14.2 SSE 17 26 9 14 1016.5 - 0.0
21/09:30am 30.3 24.6 0.8 15 14.4 S 20 30 11 16 1016.2 - 0.0
21/09:26am 30.9 26.5 4.6 19 13.7 NW 17 26 9 14 1015.6 - 0.0
21/09:00am 29.3 25.2 0.0 15 14.0 NW 11 15 6 8 1015.0 1014.4 0.0
21/08:30am 25.9 22.4 1.2 20 11.7 WNW 9 13 5 7 1015.1 - 0.0
21/08:03am 24.5 21.7 2.0 23 10.7 N 6 11 3 6 1014.7 - 0.0
21/08:00am 24.1 21.3 2.3 24 10.4 N 6 13 3 7 1014.7 - 0.0
21/07:30am 19.5 18.0 3.2 34 7.7 CALM 0 0 0 0 1014.4 - 0.0
21/07:00am 18.7 17.3 3.7 37 7.1 CALM 0 0 0 0 1014.1 - 0.0
21/06:30am 20.3 17.4 1.7 29 8.6 ENE 6 9 3 5 1013.7 - 0.0
21/06:00am 21.1 18.5 0.9 26 9.2 NE 4 13 2 7 1013.3 - 0.0
21/05:30am 20.4 15.8 1.3 28 8.7 ENE 15 17 8 9 1013.0 - 0.0
21/05:00am 20.1 16.0 2.5 31 8.2 ENE 13 15 7 8 1012.8 - 0.0
21/04:30am 17.1 13.8 2.7 38 6.6 NE 9 11 5 6 1012.8 - 0.0
21/04:00am 18.1 16.8 3.9 39 6.7 CALM 0 0 0 0 1012.8 - 0.0
21/03:30am 18.5 16.8 1.9 33 7.6 CALM 0 0 0 0 1012.7 - 0.0
21/03:00am 19.8 18.0 3.5 34 7.7 E 2 6 1 3 1012.7 1012.2 0.0
21/02:30am 21.0 19.9 5.0 35 7.9 CALM 0 0 0 0 1012.7 - 0.0
21/02:00am 23.2 21.6 2.7 26 9.8 CALM 0 7 0 4 1012.9 - 0.0
21/01:30am 21.7 18.9 1.9 27 9.2 N 6 15 3 8 1012.9 - 0.0
21/01:00am 22.8 19.6 2.8 27 9.6 WSW 9 13 5 7 1012.5 - 0.0
21/12:30am 21.3 18.2 1.6 27 9.1 WSW 7 11 4 6 1012.9 - 0.0
21/12:00am 21.3 18.2 1.6 27 9.1 SW 7 9 4 5 1013.1 1012.5 0.0
 
Date/Time
CST
Temp
°C
App
Temp
°C
Dew
Point
Rel
Hum
%
Delta-T
°C
Wind Press
QNH
hPa
Press
MSL
hPa
Rain
since 9 am
mm
Dir
 
Spd
km/h
Gust
km/h
Spd
kts
Gust
kts
20/11:30pm 21.4 18.3 1.6 27 9.2 WNW 7 9 4 5 1013.3 - 0.0
20/11:00pm 21.9 20.1 1.5 26 9.5 CALM 0 0 0 0 1013.1 - 0.0
20/10:30pm 22.6 20.6 4.2 30 9.0 SW 4 11 2 6 1013.4 - 0.0
20/10:00pm 24.1 21.3 3.4 26 10.1 WSW 7 9 4 5 1013.0 - 0.0
20/09:30pm 24.0 22.5 2.8 25 10.2 CALM 0 0 0 0 1012.9 - 0.0
20/09:00pm 25.1 22.1 1.9 22 11.1 NNE 7 9 4 5 1012.7 1012.1 0.0
20/08:30pm 26.0 24.3 2.0 21 11.6 CALM 0 0 0 0 1012.4 - 0.0
20/08:00pm 27.1 25.5 2.2 20 12.2 CALM 0 0 0 0 1012.2 - 0.0
20/07:30pm 28.9 26.1 2.2 18 13.2 S 6 7 3 4 1011.8 - 0.0
20/07:17pm 29.8 26.7 0.4 15 14.2 SE 6 7 3 4 1011.4 - 0.0
20/07:00pm 31.4 28.4 1.7 15 14.8 S 7 7 4 4 1011.2 - 0.0
20/06:30pm 34.8 31.5 0.0 11 17.2 ESE 7 11 4 6 1010.8 - 0.0
20/06:00pm 36.6 32.5 0.1 10 18.3 ESE 11 17 6 9 1010.7 1010.2 0.0
20/05:30pm 37.3 34.6 0.6 10 18.6 WSW 4 9 2 5 1010.4 - 0.0
20/05:00pm 37.7 32.2 0.9 10 18.8 NNE 19 22 10 12 1010.2 - 0.0
20/04:30pm 38.2 35.1 1.3 10 19.0 S 7 17 4 9 1010.3 - 0.0
20/04:00pm 37.9 34.0 1.0 10 18.9 E 11 20 6 11 1010.3 - 0.0
20/03:30pm 38.0 34.1 1.1 10 19.0 ESE 11 20 6 11 1010.6 - 0.0
20/03:00pm 37.5 33.5 0.7 10 18.7 W 11 19 6 10 1010.9 1010.4 0.0
20/02:30pm 38.1 34.6 1.2 10 19.0 NNE 9 20 5 11 1011.3 - 0.0
20/02:00pm 37.2 33.8 1.8 11 18.3 N 9 24 5 13 1011.9 - 0.0
20/01:30pm 37.2 32.3 1.8 11 18.3 NE 17 32 9 17 1012.4 - 0.0
20/01:00pm 37.3 33.1 1.9 11 18.3 NE 13 22 7 12 1012.9 - 0.0
20/12:30pm 36.6 31.4 2.6 12 17.7 N 19 30 10 16 1013.6 - 0.0
20/12:00pm 36.3 32.0 3.5 13 17.3 N 15 28 8 15 1014.1 1013.5 0.0
20/11:30am 34.8 29.9 2.3 13 16.7 N 17 28 9 15 1014.6 - 0.0
20/11:00am 34.0 28.9 2.8 14 16.1 N 19 30 10 16 1015.0 - 0.0
20/10:30am 33.2 27.9 3.1 15 15.5 N 20 30 11 16 1015.2 - 0.0
20/10:00am 32.2 27.7 2.3 15 15.1 N 15 24 8 13 1015.2 - 0.0
20/09:30am 30.3 26.0 3.4 18 13.7 N 15 20 8 11 1015.3 - 0.0
20/09:00am 27.9 24.6 2.2 19 12.6 NNE 9 11 5 6 1015.8 1015.3 0.0
20/08:30am 25.5 22.5 2.2 22 11.3 E 7 9 4 5 1015.7 - 0.0
20/08:09am 23.4 20.4 3.9 28 9.6 ENE 9 11 5 6 1015.5 - 0.0
20/08:00am 22.5 19.9 4.1 30 9.0 E 7 11 4 6 1015.5 - 0.0
20/07:30am 18.5 17.6 6.0 44 6.2 CALM 0 0 0 0 1015.0 - 0.0
20/07:00am 18.5 16.9 4.3 39 6.8 E 2 6 1 3 1014.7 - 0.0
20/06:30am 17.5 16.6 6.1 47 5.6 CALM 0 0 0 0 1014.4 - 0.0
20/06:00am 16.7 15.2 3.0 40 6.3 N 0 7 0 4 1014.2 1013.6 0.0
20/05:30am 16.3 13.2 5.6 49 5.2 ENE 11 13 6 7 1014.0 - 0.0
20/05:00am 16.9 14.2 5.8 48 5.4 ENE 9 13 5 7 1013.9 - 0.0
20/04:30am 16.9 14.7 5.5 47 5.5 ENE 6 9 3 5 1013.9 - 0.0
20/04:00am 17.0 16.4 7.6 54 4.7 CALM 0 0 0 0 1013.8 - 0.0
20/03:30am 16.2 13.8 1.9 38 6.4 WNW 4 7 2 4 1013.8 - 0.0
20/03:00am 17.3 15.9 3.6 40 6.4 CALM 0 0 0 0 1013.9 1013.4 0.0
20/02:30am 18.4 17.1 7.5 49 5.5 S 4 7 2 4 1014.0 - 0.0
20/02:00am 18.7 17.0 1.7 32 7.7 CALM 0 6 0 3 1013.9 - 0.0
20/01:30am 18.1 16.2 0.7 31 7.7 CALM 0 6 0 3 1014.2 - 0.0
20/01:00am 19.0 16.9 1.5 31 7.9 WNW 2 6 1 3 1013.9 - 0.0
20/12:30am 19.5 17.1 0.0 27 8.6 W 2 7 1 4 1014.0 - 0.0
20/12:00am 19.6 17.8 1.1 29 8.4 CALM 0 0 0 0 1014.1 1013.5 0.0
 
Date/Time
CST
Temp
°C
App
Temp
°C
Dew
Point
Rel
Hum
%
Delta-T
°C
Wind Press
QNH
hPa
Press
MSL
hPa
Rain
since 9 am
mm
Dir
 
Spd
km/h
Gust
km/h
Spd
kts
Gust
kts
19/11:30pm 20.7 18.4 5.9 38 7.4 WSW 7 9 4 5 1014.1 - 0.0
19/11:00pm 21.0 17.9 0.2 25 9.3 NW 6 7 3 4 1014.0 - 0.0
19/10:30pm 21.5 19.8 1.7 27 9.2 CALM 0 0 0 0 1014.0 - 0.0
19/10:00pm 22.1 20.2 0.6 24 9.8 CALM 0 0 0 0 1013.9 - 0.0
19/09:30pm 22.5 20.7 1.5 25 9.8 CALM 0 0 0 0 1013.7 - 0.0
19/09:00pm 23.5 21.7 1.2 23 10.4 CALM 0 0 0 0 1013.6 1013.0 0.0
19/08:30pm 24.9 23.9 5.7 29 9.8 CALM 0 0 0 0 1013.3 - 0.0
19/08:00pm 26.4 24.2 -1.4 16 12.7 CALM 0 0 0 0 1013.0 - 0.0
19/07:30pm 28.1 26.0 -0.9 15 13.5 CALM 0 0 0 0 1012.7 - 0.0
19/07:18pm 29.0 26.8 -1.2 14 14.1 CALM 0 0 0 0 1012.5 - 0.0
19/07:00pm 30.8 28.1 0.2 14 14.8 ENE 4 6 2 3 1012.2 - 0.0
19/06:30pm 33.9 30.3 -2.0 10 17.1 E 7 9 4 5 1011.8 - 0.0
19/06:00pm 35.9 31.6 -1.9 9 18.3 E 11 13 6 7 1011.4 1010.9 0.0
19/05:30pm 36.7 31.3 -1.3 9 18.6 ENE 17 26 9 14 1011.2 - 0.0
19/05:00pm 37.0 32.2 -2.7 8 19.1 E 13 19 7 10 1011.0 - 0.0
19/04:30pm 37.2 31.6 -2.5 8 19.2 ENE 17 32 9 17 1011.0 - 0.0
19/04:00pm 37.9 33.6 -2.0 8 19.5 E 11 17 6 9 1011.0 - 0.0
19/03:30pm 37.9 33.6 -2.0 8 19.5 ENE 11 17 6 9 1011.2 - 0.0
19/03:00pm 37.6 32.7 -0.6 9 19.1 E 15 28 8 15 1011.6 1011.0 0.0
19/02:30pm 37.6 32.9 0.8 10 18.8 NE 15 30 8 16 1012.0 - 0.0
19/02:00pm 37.5 32.4 0.7 10 18.7 ENE 17 37 9 20 1012.7 - 0.0
19/01:30pm 36.2 31.0 -0.2 10 18.1 ENE 17 28 9 15 1013.3 - 0.0
19/01:00pm 36.9 31.7 0.3 10 18.4 ENE 17 28 9 15 1013.9 - 0.0
19/12:30pm 35.3 30.5 2.7 13 16.9 NNE 17 32 9 17 1014.6 - 0.0
19/12:00pm 35.0 30.4 3.5 14 16.5 NE 17 28 9 15 1015.3 1014.7 0.0
19/11:30am 34.4 30.1 3.1 14 16.2 NNE 15 24 8 13 1015.8 - 0.0
19/11:00am 34.2 29.5 2.9 14 16.2 NNE 17 28 9 15 1016.2 - 0.0
19/10:30am 33.6 29.1 2.4 14 15.9 NNE 15 26 8 14 1016.5 - 0.0
19/10:00am 32.4 29.0 5.8 19 14.3 N 13 19 7 10 1016.8 - 0.0
19/09:30am 29.8 28.5 5.8 22 12.7 S 2 7 1 4 1016.9 - 0.0
19/09:00am 27.0 25.7 5.9 26 11.0 SSE 2 7 1 4 1017.0 1016.5 0.0
19/08:30am 24.8 23.8 5.6 29 9.8 CALM 0 6 0 3 1016.9 - 0.0
19/08:24am 24.1 22.2 5.0 29 9.6 E 4 7 2 4 1016.9 - 0.0
19/08:00am 22.1 21.0 5.1 33 8.5 CALM 0 7 0 4 1016.5 - 0.0
19/07:30am 19.1 16.9 5.2 40 6.8 N 6 7 3 4 1016.1 - 0.0
19/07:00am 17.1 15.8 9.8 62 3.9 E 7 11 4 6 1015.8 - 0.0
19/06:30am 16.2 13.4 2.9 41 6.1 NE 7 11 4 6 1015.5 - 0.0
19/06:00am 16.5 13.9 6.1 50 5.1 ENE 9 11 5 6 1015.0 1014.4 0.0
19/05:30am 16.3 - 5.9 50 5.1 - - - - - 1014.6 - 0.0
19/05:00am 16.7 15.3 3.7 42 6.1 CALM 0 0 0 0 1014.4 - 0.0
19/04:30am 17.2 15.9 7.5 53 4.9 E 4 9 2 5 1014.3 - 0.0
19/04:00am 17.0 15.2 3.7 41 6.2 ENE 2 6 1 3 1014.2 - 0.0
19/03:30am 18.1 15.8 5.0 42 6.3 NE 6 7 3 4 1014.3 - 0.0
19/03:00am 19.0 16.9 6.5 44 6.3 S 7 9 4 5 1014.3 1013.7 0.0
19/02:30am 18.4 15.5 2.7 35 7.3 NE 7 9 4 5 1014.4 - 0.0
19/02:00am 20.1 17.8 5.7 39 7.2 ESE 7 9 4 5 1014.6 - 0.0
19/01:30am 20.3 16.8 3.5 33 8.0 ENE 11 26 6 14 1014.7 - 0.0
19/01:00am 20.0 17.3 2.8 32 8.1 N 6 7 3 4 1014.5 - 0.0
19/12:30am 21.0 18.5 3.7 32 8.3 WSW 6 9 3 5 1014.4 - 0.0
19/12:00am 21.3 19.9 3.5 31 8.5 CALM 0 0 0 0 1014.6 1014.0 0.0
 
Date/Time
CST
Temp
°C
App
Temp
°C
Dew
Point
Rel
Hum
%
Delta-T
°C
Wind Press
QNH
hPa
Press
MSL
hPa
Rain
since 9 am
mm
Dir
 
Spd
km/h
Gust
km/h
Spd
kts
Gust
kts
18/11:30pm 22.3 21.1 4.8 32 8.7 CALM 0 4 0 2 1014.7 - 0.0
18/11:00pm 22.0 20.0 4.6 32 8.6 WNW 4 9 2 5 1014.7 - 0.0
18/10:30pm 22.5 20.3 5.4 33 8.6 WSW 6 7 3 4 1014.8 - 0.0
18/10:00pm 22.9 20.3 4.4 30 9.1 WSW 7 9 4 5 1014.7 - 0.0
18/09:30pm 23.8 20.9 1.4 23 10.5 W 6 7 3 4 1014.4 - 0.0
18/09:00pm 24.7 22.8 2.8 24 10.6 NE 2 6 1 3 1014.3 1013.7 0.0
18/08:30pm 25.7 22.9 1.8 21 11.5 ENE 6 7 3 4 1014.1 - 0.0
18/08:00pm 27.1 24.1 0.8 18 12.5 ENE 6 7 3 4 1013.7 - 0.0

Other Formats:

Comma delimited format used in spreadsheet applications
http://www.bom.gov.au/fwo/IDD60801/IDD60801.94232.axf

JavaScript Object Notation format (JSON) in row-major order
http://www.bom.gov.au/fwo/IDD60801/IDD60801.94232.json